createdAt,value
2024-01-31T00:01:59.453Z,21.63
2024-01-31T00:04:26.588Z,21.63
2024-01-31T00:06:53.835Z,21.63
2024-01-31T00:09:20.805Z,21.63
2024-01-31T00:11:47.795Z,21.56
2024-01-31T00:14:14.778Z,21.56
2024-01-31T00:16:41.754Z,21.63
2024-01-31T00:19:08.930Z,21.63
2024-01-31T00:21:35.927Z,21.50
2024-01-31T00:24:02.863Z,21.44
2024-01-31T00:26:29.902Z,21.38
2024-01-31T00:28:56.925Z,21.31
2024-01-31T00:31:23.941Z,21.25
2024-01-31T00:33:51.002Z,21.25
2024-01-31T00:36:18.041Z,21.19
2024-01-31T00:38:44.984Z,21.19
2024-01-31T00:41:12.055Z,21.13
2024-01-31T00:43:39.173Z,21.13
2024-01-31T00:46:06.367Z,21.13
2024-01-31T00:48:33.610Z,21.06
2024-01-31T00:51:00.803Z,21.06
2024-01-31T00:53:27.758Z,21.00
2024-01-31T00:55:54.760Z,20.88
2024-01-31T00:58:21.770Z,20.81
2024-01-31T01:00:48.899Z,20.69
2024-01-31T01:03:16.038Z,20.63
2024-01-31T01:05:43.044Z,20.56
2024-01-31T01:08:10.051Z,20.63
2024-01-31T01:10:37.103Z,20.63
2024-01-31T01:13:04.102Z,20.63
2024-01-31T01:15:31.280Z,20.63
2024-01-31T01:17:58.313Z,20.63
2024-01-31T01:20:25.350Z,20.75
2024-01-31T01:22:52.434Z,20.81
2024-01-31T01:25:19.459Z,20.75
2024-01-31T01:27:46.452Z,20.69
2024-01-31T01:30:13.445Z,20.63
2024-01-31T01:32:40.442Z,20.56
2024-01-31T01:35:07.462Z,20.56
2024-01-31T01:37:34.760Z,20.50
2024-01-31T01:40:01.831Z,20.50
2024-01-31T01:42:28.831Z,20.44
2024-01-31T01:44:55.855Z,20.44
2024-01-31T01:47:22.822Z,20.44
2024-01-31T01:49:49.988Z,20.38
2024-01-31T01:52:17.141Z,20.38
2024-01-31T01:54:44.170Z,20.38
2024-01-31T01:57:11.140Z,20.31
2024-01-31T01:59:38.103Z,20.31
2024-01-31T02:02:05.170Z,20.25
2024-01-31T02:04:32.237Z,20.13
2024-01-31T02:06:59.461Z,20.00
2024-01-31T02:09:26.537Z,19.94
2024-01-31T02:11:53.521Z,19.94
2024-01-31T02:14:20.501Z,19.94
2024-01-31T02:16:47.549Z,19.94
2024-01-31T02:19:14.608Z,19.94
2024-01-31T02:21:41.594Z,19.94
2024-01-31T02:24:08.780Z,19.94
2024-01-31T02:26:35.768Z,20.19
2024-01-31T02:29:02.727Z,20.19
2024-01-31T02:31:29.789Z,20.19
2024-01-31T02:33:56.982Z,20.13
2024-01-31T02:36:24.067Z,20.06
2024-01-31T02:38:51.383Z,20.00
2024-01-31T02:41:18.384Z,20.00
2024-01-31T02:43:45.397Z,19.94
2024-01-31T02:46:12.424Z,19.94
2024-01-31T02:48:39.493Z,19.88
2024-01-31T02:51:06.529Z,19.88
2024-01-31T02:53:33.486Z,19.88
2024-01-31T02:56:00.462Z,19.88
2024-01-31T02:58:27.443Z,19.88
2024-01-31T03:00:54.549Z,19.81
2024-01-31T03:03:21.540Z,19.81
2024-01-31T03:05:48.527Z,19.75
2024-01-31T03:08:15.681Z,19.75
2024-01-31T03:10:42.727Z,19.63
2024-01-31T03:13:09.748Z,19.50
2024-01-31T03:15:36.825Z,19.50
2024-01-31T03:18:04.071Z,19.44
2024-01-31T03:20:31.153Z,19.44
2024-01-31T03:22:58.117Z,19.44
2024-01-31T03:25:25.088Z,19.50
2024-01-31T03:27:52.101Z,19.44
2024-01-31T03:30:19.103Z,19.56
2024-01-31T03:32:46.162Z,19.75
2024-01-31T03:35:13.234Z,19.75
2024-01-31T03:37:40.279Z,19.69
2024-01-31T03:40:07.304Z,19.63
2024-01-31T03:42:34.287Z,19.63
2024-01-31T03:45:01.260Z,19.56
2024-01-31T03:47:28.233Z,19.56
2024-01-31T03:49:55.399Z,19.56
2024-01-31T03:52:22.748Z,19.50
2024-01-31T03:54:49.754Z,19.50
2024-01-31T03:57:16.668Z,19.50
2024-01-31T03:59:43.652Z,19.44
2024-01-31T04:02:10.662Z,19.44
2024-01-31T04:04:37.681Z,19.44
2024-01-31T04:07:04.765Z,19.44
2024-01-31T04:09:31.710Z,19.38
2024-01-31T04:11:58.700Z,19.38
2024-01-31T04:14:25.643Z,19.31
2024-01-31T04:16:52.626Z,19.25
2024-01-31T04:19:19.701Z,19.13
2024-01-31T04:21:46.805Z,19.06
2024-01-31T04:24:13.788Z,19.06
2024-01-31T04:26:40.729Z,19.38
2024-01-31T04:29:07.788Z,19.88
2024-01-31T04:31:34.814Z,25.94
2024-01-31T04:34:01.914Z,33.88
2024-01-31T04:36:29.089Z,36.38
2024-01-31T04:38:56.017Z,36.88
2024-01-31T04:41:22.975Z,36.94
2024-01-31T04:43:49.978Z,36.88
2024-01-31T04:46:16.931Z,34.63
2024-01-31T04:48:44.126Z,29.94
2024-01-31T04:51:11.396Z,26.50
2024-01-31T04:53:38.337Z,24.56
2024-01-31T04:56:05.341Z,23.69
2024-01-31T04:58:32.436Z,23.38
2024-01-31T05:00:59.602Z,23.25
2024-01-31T05:03:26.686Z,22.63
2024-01-31T05:05:53.763Z,21.88
2024-01-31T05:08:20.773Z,23.06
2024-01-31T05:10:47.832Z,31.06
2024-01-31T05:13:14.920Z,34.88
2024-01-31T05:15:41.851Z,35.63
2024-01-31T05:18:08.903Z,35.75
2024-01-31T05:20:35.946Z,29.56
2024-01-31T05:23:02.930Z,26.31
2024-01-31T05:25:29.974Z,28.44
2024-01-31T05:27:57.012Z,34.44
2024-01-31T05:30:23.972Z,36.19
2024-01-31T05:32:50.975Z,36.31
2024-01-31T05:35:17.977Z,34.63
2024-01-31T05:37:45.002Z,29.38
2024-01-31T05:40:11.994Z,28.06
2024-01-31T05:42:39.047Z,33.50
2024-01-31T05:45:05.981Z,36.81
2024-01-31T05:47:32.957Z,37.19
2024-01-31T05:50:00.190Z,36.88
2024-01-31T05:52:27.271Z,33.31
2024-01-31T05:54:54.283Z,29.94
2024-01-31T05:57:21.296Z,30.50
2024-01-31T05:59:48.259Z,35.88
2024-01-31T06:02:15.242Z,38.13
2024-01-31T06:04:42.406Z,37.75
2024-01-31T06:07:09.475Z,37.06
2024-01-31T06:09:36.439Z,33.19
2024-01-31T06:12:03.531Z,31.00
2024-01-31T06:14:30.505Z,33.88
2024-01-31T06:16:57.868Z,37.44
2024-01-31T06:19:25.292Z,38.63
2024-01-31T06:21:52.286Z,38.00
2024-01-31T06:24:19.260Z,37.19
2024-01-31T06:26:46.218Z,34.00
2024-01-31T06:29:13.224Z,32.13
2024-01-31T06:31:40.210Z,34.00
2024-01-31T06:34:07.394Z,37.50
2024-01-31T06:36:34.433Z,38.75
2024-01-31T06:39:01.414Z,38.38
2024-01-31T06:41:28.390Z,36.63
2024-01-31T06:43:55.412Z,35.50
2024-01-31T06:46:22.452Z,35.38
2024-01-31T06:48:49.484Z,37.69
2024-01-31T06:51:16.656Z,38.81
2024-01-31T06:53:43.641Z,38.13
2024-01-31T06:56:10.605Z,36.56
2024-01-31T06:58:37.592Z,35.75
2024-01-31T07:01:04.606Z,37.44
2024-01-31T07:03:31.754Z,38.81
2024-01-31T07:05:58.764Z,39.25
2024-01-31T07:08:25.693Z,38.50
2024-01-31T07:10:52.780Z,38.00
2024-01-31T07:13:19.800Z,38.00
2024-01-31T07:15:46.835Z,38.63
2024-01-31T07:18:13.922Z,39.25
2024-01-31T07:20:40.958Z,39.50
2024-01-31T07:23:07.912Z,39.63
2024-01-31T07:25:34.910Z,39.69
2024-01-31T07:28:01.916Z,39.81
2024-01-31T07:30:28.879Z,40.00
2024-01-31T07:32:55.875Z,40.13
2024-01-31T07:35:23.084Z,40.25
2024-01-31T07:37:50.070Z,40.31
2024-01-31T07:40:17.093Z,40.38
2024-01-31T07:42:44.107Z,40.50
2024-01-31T07:45:11.081Z,40.69
2024-01-31T07:47:38.126Z,40.75
2024-01-31T07:50:05.216Z,40.81
2024-01-31T07:52:32.252Z,40.94
2024-01-31T07:54:59.257Z,41.06
2024-01-31T07:57:26.276Z,41.19
2024-01-31T07:59:53.237Z,41.25
2024-01-31T08:02:20.251Z,41.31
2024-01-31T08:04:47.263Z,41.31
2024-01-31T08:07:14.280Z,41.13
2024-01-31T08:09:41.392Z,41.00
2024-01-31T08:12:08.392Z,40.94
2024-01-31T08:14:35.367Z,41.00
2024-01-31T08:17:02.322Z,41.13
2024-01-31T08:19:29.445Z,41.19
2024-01-31T08:21:56.446Z,41.19
2024-01-31T08:24:23.426Z,41.25
2024-01-31T08:26:50.500Z,41.25
2024-01-31T08:29:23.565Z,41.31
2024-01-31T08:31:54.697Z,41.31
2024-01-31T08:34:22.441Z,41.19
2024-01-31T08:36:49.921Z,41.00
2024-01-31T08:39:16.911Z,40.94
2024-01-31T08:41:43.883Z,40.94
2024-01-31T08:44:10.942Z,40.94
2024-01-31T08:46:48.048Z,40.94
2024-01-31T08:49:25.062Z,40.94
2024-01-31T08:51:52.103Z,41.00
2024-01-31T08:54:19.041Z,41.06
2024-01-31T08:56:46.042Z,41.06
2024-01-31T08:59:13.041Z,41.06
2024-01-31T09:01:40.181Z,41.06
2024-01-31T09:04:07.295Z,41.00
2024-01-31T09:06:34.330Z,41.00
2024-01-31T09:09:01.382Z,40.81
2024-01-31T09:11:28.343Z,40.56
2024-01-31T09:13:55.345Z,40.31
2024-01-31T09:16:22.317Z,40.06
2024-01-31T09:18:49.504Z,39.75
2024-01-31T09:21:16.540Z,38.81
2024-01-31T09:23:43.462Z,38.81
2024-01-31T09:26:10.425Z,39.31
2024-01-31T09:28:37.408Z,39.50
2024-01-31T09:31:04.385Z,39.56
2024-01-31T09:33:31.505Z,39.63
2024-01-31T09:35:58.522Z,39.69
2024-01-31T09:38:25.491Z,39.75
2024-01-31T09:40:52.681Z,39.88
2024-01-31T09:43:19.781Z,39.88
2024-01-31T09:45:46.772Z,39.94
2024-01-31T09:48:13.794Z,40.00
2024-01-31T09:50:40.753Z,40.06
2024-01-31T09:53:07.841Z,40.00
2024-01-31T09:55:34.796Z,40.06
2024-01-31T09:58:01.781Z,40.13
2024-01-31T10:00:28.795Z,40.25
2024-01-31T10:02:55.884Z,40.31
2024-01-31T10:05:22.864Z,40.31
2024-01-31T10:07:49.931Z,40.38
2024-01-31T10:10:16.908Z,40.44
2024-01-31T10:12:43.901Z,40.50
2024-01-31T10:15:11.090Z,40.50
2024-01-31T10:17:38.228Z,40.50
2024-01-31T10:20:05.420Z,40.50
2024-01-31T10:22:32.591Z,40.50
2024-01-31T10:24:59.665Z,40.56
2024-01-31T10:27:26.717Z,40.63
2024-01-31T10:29:53.931Z,40.63
2024-01-31T10:32:21.039Z,40.63
2024-01-31T10:35:01.268Z,40.63
2024-01-31T10:40:05.121Z,40.69
2024-01-31T10:42:32.174Z,40.69
2024-01-31T10:44:59.305Z,40.69
2024-01-31T10:47:26.455Z,40.69
2024-01-31T10:49:53.654Z,40.69
2024-01-31T10:52:20.703Z,40.44
2024-01-31T10:54:47.811Z,40.25
2024-01-31T10:57:15.033Z,40.19
2024-01-31T10:59:42.106Z,40.13
2024-01-31T11:02:10.094Z,40.19
2024-01-31T11:04:38.298Z,40.13
2024-01-31T11:07:05.566Z,40.06
2024-01-31T11:09:32.656Z,40.06
2024-01-31T11:11:59.634Z,40.06
2024-01-31T11:14:26.705Z,40.00
2024-01-31T11:16:53.739Z,40.00
2024-01-31T11:19:20.920Z,40.00
2024-01-31T11:21:48.038Z,40.00
2024-01-31T11:24:15.048Z,40.00
2024-01-31T11:26:42.043Z,40.00
2024-01-31T11:29:09.054Z,39.94
2024-01-31T11:31:36.187Z,40.00
2024-01-31T11:34:03.363Z,40.00
2024-01-31T11:36:30.393Z,39.94
2024-01-31T11:38:57.550Z,39.94
2024-01-31T11:41:24.557Z,39.94
2024-01-31T11:43:51.580Z,39.94
2024-01-31T11:46:18.601Z,40.00
2024-01-31T11:48:45.670Z,40.00
2024-01-31T11:51:12.709Z,40.00
2024-01-31T11:53:39.849Z,39.94
2024-01-31T11:56:06.840Z,39.94
2024-01-31T11:58:33.805Z,39.94
2024-01-31T12:01:00.867Z,39.94
2024-01-31T12:03:27.829Z,39.94
2024-01-31T12:05:54.948Z,39.94
2024-01-31T12:08:22.040Z,39.88
2024-01-31T12:10:49.167Z,39.88
2024-01-31T12:13:16.157Z,39.88
2024-01-31T12:15:43.156Z,39.88
2024-01-31T12:18:13.160Z,39.88
2024-01-31T12:20:40.407Z,39.88
2024-01-31T12:23:07.403Z,39.88
2024-01-31T12:25:34.350Z,39.88
2024-01-31T12:28:01.282Z,39.88
2024-01-31T12:30:28.295Z,39.81
2024-01-31T12:32:55.364Z,39.88
2024-01-31T12:35:22.449Z,39.88
2024-01-31T12:37:49.507Z,39.81
2024-01-31T12:40:16.517Z,39.81
2024-01-31T12:42:43.914Z,39.81
2024-01-31T12:45:11.495Z,39.81
2024-01-31T12:47:38.559Z,39.81
2024-01-31T12:50:05.620Z,39.88
2024-01-31T12:52:32.615Z,39.88
2024-01-31T12:54:59.632Z,39.88
2024-01-31T12:57:26.630Z,39.88
2024-01-31T12:59:53.783Z,39.88
2024-01-31T13:02:21.163Z,39.94
2024-01-31T13:04:48.414Z,39.94
2024-01-31T13:07:16.102Z,39.94
2024-01-31T13:09:43.424Z,39.94
2024-01-31T13:12:13.220Z,39.88
2024-01-31T13:14:40.534Z,39.88
2024-01-31T13:17:07.628Z,39.88
2024-01-31T13:19:34.604Z,39.88
2024-01-31T13:22:01.653Z,39.94
2024-01-31T13:24:28.676Z,39.94
2024-01-31T13:26:55.734Z,39.88
2024-01-31T13:29:22.972Z,39.81
2024-01-31T13:31:50.186Z,39.81
2024-01-31T13:34:17.316Z,39.81
2024-01-31T13:36:46.646Z,39.81
2024-01-31T13:39:13.800Z,39.81
2024-01-31T13:41:40.847Z,39.81
2024-01-31T13:44:07.834Z,39.81
2024-01-31T13:46:34.868Z,39.88
2024-01-31T13:49:02.061Z,39.88
2024-01-31T13:51:29.096Z,39.88
2024-01-31T13:53:56.090Z,39.88
2024-01-31T13:56:23.131Z,39.88
2024-01-31T13:58:50.142Z,39.88
2024-01-31T14:01:17.194Z,39.94
2024-01-31T14:03:44.240Z,39.88
2024-01-31T14:06:11.664Z,39.88
2024-01-31T14:08:38.740Z,39.88
2024-01-31T14:11:05.688Z,39.88
2024-01-31T14:13:32.819Z,39.94
2024-01-31T14:15:59.873Z,39.94
2024-01-31T14:18:27.082Z,39.94
2024-01-31T14:20:54.232Z,39.88
2024-01-31T14:25:51.112Z,39.88
2024-01-31T14:28:18.114Z,39.94
2024-01-31T14:30:45.053Z,40.00
2024-01-31T14:33:12.124Z,40.00
2024-01-31T14:35:39.243Z,40.00
2024-01-31T14:38:06.210Z,39.94
2024-01-31T14:40:33.265Z,39.94
2024-01-31T14:43:00.262Z,39.94
2024-01-31T14:45:27.241Z,39.94
2024-01-31T14:47:54.342Z,39.94
2024-01-31T14:50:21.502Z,39.94
2024-01-31T14:52:48.532Z,39.94
2024-01-31T14:55:15.500Z,39.94
2024-01-31T14:57:42.481Z,39.94
2024-01-31T15:00:09.690Z,39.94
2024-01-31T15:02:36.881Z,39.94
2024-01-31T15:05:04.032Z,40.00
2024-01-31T15:07:31.516Z,40.00
2024-01-31T15:09:58.599Z,40.00
2024-01-31T15:12:25.668Z,39.75
2024-01-31T15:14:52.804Z,39.56
2024-01-31T15:17:19.802Z,39.50
2024-01-31T15:19:46.863Z,39.44
2024-01-31T15:22:14.017Z,39.44
2024-01-31T15:24:40.967Z,39.44
2024-01-31T15:27:07.944Z,39.44
2024-01-31T15:29:34.994Z,39.38
2024-01-31T15:32:01.949Z,39.38
2024-01-31T15:34:29.007Z,39.38
2024-01-31T15:36:56.016Z,39.38
2024-01-31T15:39:23.041Z,39.38
2024-01-31T15:41:50.024Z,39.38
2024-01-31T15:44:16.993Z,39.38
2024-01-31T15:46:44.000Z,39.31
2024-01-31T15:49:11.060Z,39.31
2024-01-31T15:51:38.095Z,39.31
2024-01-31T15:54:05.162Z,39.25
2024-01-31T15:56:32.244Z,39.06
2024-01-31T15:58:59.230Z,38.88
2024-01-31T16:01:26.220Z,38.69
2024-01-31T16:03:53.169Z,38.44
2024-01-31T16:06:20.411Z,38.25
2024-01-31T16:08:47.532Z,38.25
2024-01-31T16:11:14.520Z,38.31
2024-01-31T16:13:41.470Z,37.94
2024-01-31T16:16:08.431Z,37.50
2024-01-31T16:18:35.489Z,38.13
2024-01-31T16:21:02.634Z,38.19
2024-01-31T16:23:29.720Z,38.19
2024-01-31T16:25:56.676Z,38.25
2024-01-31T16:28:23.719Z,38.38
2024-01-31T16:30:50.777Z,38.44
2024-01-31T16:33:17.953Z,38.50
2024-01-31T16:35:45.003Z,38.56
2024-01-31T16:38:12.040Z,38.63
2024-01-31T16:40:39.001Z,38.69
2024-01-31T16:43:05.961Z,38.81
2024-01-31T16:45:33.096Z,38.81
2024-01-31T16:48:00.133Z,38.88
2024-01-31T16:50:27.173Z,38.94
2024-01-31T16:52:54.194Z,39.00
2024-01-31T16:55:21.154Z,39.00
2024-01-31T16:57:48.206Z,39.06
2024-01-31T17:00:15.253Z,39.06
2024-01-31T17:02:42.372Z,39.13
2024-01-31T17:05:09.545Z,39.19
2024-01-31T17:07:36.589Z,39.19
2024-01-31T17:10:03.551Z,39.19
2024-01-31T17:12:30.558Z,39.25
2024-01-31T17:14:57.595Z,39.31
2024-01-31T17:17:24.649Z,39.38
2024-01-31T17:19:51.730Z,39.38
2024-01-31T17:22:18.718Z,39.31
2024-01-31T17:24:45.693Z,39.38
2024-01-31T17:27:12.692Z,39.38
2024-01-31T17:29:39.768Z,39.38
2024-01-31T17:32:06.905Z,39.38
2024-01-31T17:34:34.189Z,39.44
2024-01-31T17:37:01.336Z,39.50
2024-01-31T17:39:28.311Z,39.50
2024-01-31T17:41:55.389Z,39.50
2024-01-31T17:44:22.411Z,39.56
2024-01-31T17:46:49.561Z,39.56
2024-01-31T17:49:16.661Z,39.56
2024-01-31T17:51:43.742Z,39.63
2024-01-31T17:54:10.793Z,39.69
2024-01-31T17:56:37.841Z,39.69
2024-01-31T17:59:04.785Z,39.69
2024-01-31T18:01:31.748Z,39.75
2024-01-31T18:03:58.822Z,39.75
2024-01-31T18:06:25.980Z,39.75
2024-01-31T18:08:53.021Z,39.81
2024-01-31T18:11:20.032Z,39.81
2024-01-31T18:13:46.982Z,39.88
2024-01-31T18:16:13.954Z,39.88
2024-01-31T18:18:41.001Z,39.81
2024-01-31T18:21:08.162Z,39.88
2024-01-31T18:23:35.286Z,39.88
2024-01-31T18:26:02.305Z,39.94
2024-01-31T18:28:29.526Z,39.88
2024-01-31T18:30:56.521Z,39.94
2024-01-31T18:33:23.602Z,39.94
2024-01-31T18:35:50.658Z,39.94
2024-01-31T18:38:17.692Z,39.94
2024-01-31T18:40:44.651Z,40.00
2024-01-31T18:43:11.608Z,39.94
2024-01-31T18:45:38.581Z,39.88
2024-01-31T18:48:05.637Z,39.81
2024-01-31T18:50:32.795Z,39.75
2024-01-31T18:52:59.778Z,39.75
2024-01-31T18:55:26.706Z,39.75
2024-01-31T18:57:53.718Z,39.75
2024-01-31T19:00:20.686Z,39.75
2024-01-31T19:02:47.894Z,39.75
2024-01-31T19:05:14.934Z,39.69
2024-01-31T19:07:41.944Z,39.50
2024-01-31T19:10:08.920Z,39.31
2024-01-31T19:12:35.885Z,39.13
2024-01-31T19:15:03.109Z,38.94
2024-01-31T19:17:33.176Z,38.69
2024-01-31T19:20:06.285Z,38.50
2024-01-31T19:22:33.292Z,37.69
2024-01-31T19:25:00.330Z,37.19
2024-01-31T19:27:27.289Z,37.94
2024-01-31T19:29:54.408Z,38.19
2024-01-31T19:32:21.421Z,38.44
2024-01-31T19:34:48.425Z,38.56
2024-01-31T19:37:15.420Z,38.63
2024-01-31T19:39:42.416Z,38.75
2024-01-31T19:42:09.512Z,38.81
2024-01-31T19:44:36.633Z,38.88
2024-01-31T19:47:03.625Z,38.88
2024-01-31T19:49:30.740Z,39.00
2024-01-31T19:51:57.823Z,39.06
2024-01-31T19:54:24.881Z,39.13
2024-01-31T19:56:51.935Z,39.19
2024-01-31T19:59:19.016Z,39.25
2024-01-31T20:01:46.011Z,39.25
2024-01-31T20:04:13.043Z,38.94
2024-01-31T20:06:41.348Z,38.63
2024-01-31T20:09:08.654Z,38.50
2024-01-31T20:11:35.954Z,38.25
2024-01-31T20:14:03.029Z,37.75
2024-01-31T20:16:29.962Z,37.13
2024-01-31T20:18:57.100Z,36.56
2024-01-31T20:21:24.338Z,36.06
2024-01-31T20:23:51.409Z,35.69
2024-01-31T20:26:18.410Z,35.31
2024-01-31T20:28:45.388Z,35.00
2024-01-31T20:31:12.395Z,34.69
2024-01-31T20:33:39.608Z,34.38
2024-01-31T20:36:06.716Z,34.06
2024-01-31T20:38:33.807Z,33.69
2024-01-31T20:41:00.855Z,33.31
2024-01-31T20:43:27.841Z,32.94
2024-01-31T20:45:54.768Z,32.50
2024-01-31T20:48:29.670Z,32.13
2024-01-31T20:51:00.440Z,31.75
2024-01-31T20:53:27.453Z,31.44
2024-01-31T20:55:54.578Z,31.13
2024-01-31T20:58:21.652Z,30.88
2024-01-31T21:00:48.630Z,30.63
2024-01-31T21:03:15.785Z,30.38
2024-01-31T21:05:42.813Z,30.19
2024-01-31T21:08:09.989Z,30.00
2024-01-31T21:10:37.074Z,29.88
2024-01-31T21:13:04.388Z,29.69
2024-01-31T21:15:32.033Z,29.56
2024-01-31T21:17:59.203Z,29.44
2024-01-31T21:20:28.270Z,29.25
2024-01-31T21:22:56.030Z,29.13
2024-01-31T21:25:23.006Z,29.00
2024-01-31T21:27:49.956Z,28.88
2024-01-31T21:30:16.916Z,28.75
2024-01-31T21:32:43.975Z,28.63
2024-01-31T21:35:10.941Z,28.50
2024-01-31T21:37:37.910Z,28.38
2024-01-31T21:40:04.981Z,28.19
2024-01-31T21:42:31.932Z,28.06
2024-01-31T21:44:58.950Z,27.94
2024-01-31T21:47:25.946Z,27.88
2024-01-31T21:49:52.943Z,27.75
2024-01-31T21:52:19.901Z,27.63
2024-01-31T21:54:46.920Z,27.50
2024-01-31T21:57:13.996Z,27.38
2024-01-31T21:59:41.119Z,27.25
2024-01-31T22:02:08.156Z,27.13
2024-01-31T22:04:35.372Z,27.00
2024-01-31T22:07:03.018Z,26.94
2024-01-31T22:09:30.290Z,26.81
2024-01-31T22:11:57.476Z,26.69
2024-01-31T22:14:24.446Z,26.56
2024-01-31T22:16:51.369Z,26.50
2024-01-31T22:19:18.462Z,26.38
2024-01-31T22:21:45.505Z,26.31
2024-01-31T22:24:12.599Z,26.19
2024-01-31T22:26:39.805Z,26.13
2024-01-31T22:29:06.820Z,26.00
2024-01-31T22:31:33.800Z,25.94
2024-01-31T22:34:01.093Z,25.81
2024-01-31T22:36:28.546Z,25.75
2024-01-31T22:38:55.624Z,25.69
2024-01-31T22:41:22.892Z,25.56
2024-01-31T22:43:49.888Z,25.50
2024-01-31T22:46:16.849Z,25.44
2024-01-31T22:48:43.954Z,25.38
2024-01-31T22:51:11.059Z,25.31
2024-01-31T22:53:38.170Z,25.25
2024-01-31T22:56:05.376Z,25.19
2024-01-31T22:58:32.458Z,25.13
2024-01-31T23:00:59.756Z,25.06
2024-01-31T23:03:27.087Z,24.94
2024-01-31T23:05:54.211Z,24.94
2024-01-31T23:08:21.291Z,23.81
2024-01-31T23:10:48.349Z,23.13
2024-01-31T23:13:15.374Z,22.81
2024-01-31T23:15:42.384Z,22.69
2024-01-31T23:18:12.348Z,22.63
2024-01-31T23:20:39.415Z,22.56
2024-01-31T23:23:06.491Z,22.50
2024-01-31T23:25:33.484Z,22.44
2024-01-31T23:28:00.457Z,22.44
2024-01-31T23:30:28.283Z,22.38
2024-01-31T23:32:55.378Z,22.38
2024-01-31T23:35:22.509Z,22.31
2024-01-31T23:37:49.469Z,22.31
2024-01-31T23:40:16.455Z,22.25
2024-01-31T23:42:43.556Z,22.19
2024-01-31T23:45:10.645Z,22.06
2024-01-31T23:47:37.707Z,21.88
2024-01-31T23:50:04.775Z,21.75
2024-01-31T23:52:31.790Z,21.69
2024-01-31T23:54:58.736Z,21.69
2024-01-31T23:57:25.730Z,21.69
2024-01-31T23:59:52.684Z,21.75
